createdAt,value
2017-12-26T00:00:53.624Z,8.50
2017-12-26T00:01:53.643Z,8.80
2017-12-26T00:02:53.661Z,8.80
2017-12-26T00:03:53.679Z,8.30
2017-12-26T00:04:53.697Z,8.20
2017-12-26T00:05:53.710Z,8.30
2017-12-26T00:06:53.735Z,9.10
2017-12-26T00:07:53.746Z,7.80
2017-12-26T00:08:53.764Z,8.00
2017-12-26T00:09:53.790Z,8.60
2017-12-26T00:10:53.802Z,8.50
2017-12-26T00:11:53.825Z,10.10
2017-12-26T00:12:53.838Z,7.30
2017-12-26T00:13:53.863Z,8.30
2017-12-26T00:14:53.874Z,7.60
2017-12-26T00:15:53.899Z,7.50
2017-12-26T00:16:53.910Z,8.30
2017-12-26T00:17:53.929Z,7.30
2017-12-26T00:18:53.948Z,7.60
2017-12-26T00:19:53.965Z,8.10
2017-12-26T00:20:53.986Z,8.20
2017-12-26T00:21:54.007Z,7.60
2017-12-26T00:22:54.021Z,8.00
2017-12-26T00:23:54.044Z,8.30
2017-12-26T00:24:54.061Z,9.40
2017-12-26T00:25:54.074Z,7.70
2017-12-26T00:26:54.098Z,8.00
2017-12-26T00:27:54.111Z,6.80
2017-12-26T00:28:54.136Z,8.30
2017-12-26T00:29:54.148Z,7.90
2017-12-26T00:30:54.171Z,7.90
2017-12-26T00:31:54.189Z,7.90
2017-12-26T00:32:54.207Z,7.80
2017-12-26T00:33:54.220Z,7.10
2017-12-26T00:34:54.238Z,7.50
2017-12-26T00:35:54.266Z,7.60
2017-12-26T00:36:54.274Z,8.00
2017-12-26T00:37:54.294Z,8.30
2017-12-26T00:38:54.318Z,7.80
2017-12-26T00:39:54.331Z,7.00
2017-12-26T00:40:54.353Z,6.90
2017-12-26T00:41:54.366Z,6.50
2017-12-26T00:42:54.385Z,9.10
2017-12-26T00:43:54.408Z,7.20
2017-12-26T00:44:54.426Z,6.30
2017-12-26T00:45:54.437Z,7.10
2017-12-26T00:46:54.458Z,6.70
2017-12-26T00:47:54.476Z,8.00
2017-12-26T00:48:54.493Z,7.30
2017-12-26T00:49:54.518Z,8.00
2017-12-26T00:50:54.536Z,7.80
2017-12-26T00:51:54.550Z,7.00
2017-12-26T00:52:54.571Z,6.40
2017-12-26T00:53:54.590Z,6.80
2017-12-26T00:54:54.602Z,6.30
2017-12-26T00:55:54.629Z,7.40
2017-12-26T00:56:54.639Z,7.10
2017-12-26T00:57:54.663Z,7.50
2017-12-26T00:58:54.680Z,7.30
2017-12-26T00:59:54.693Z,6.10
2017-12-26T01:00:54.714Z,6.30
2017-12-26T01:01:54.736Z,6.50
2017-12-26T01:02:54.754Z,6.10
2017-12-26T01:03:54.766Z,5.10
2017-12-26T01:04:54.836Z,6.10
2017-12-26T01:05:54.805Z,6.30
2017-12-26T01:06:54.827Z,6.30
2017-12-26T01:07:54.845Z,6.20
2017-12-26T01:08:54.856Z,6.00
2017-12-26T01:09:54.874Z,5.60
2017-12-26T01:10:54.892Z,5.40
2017-12-26T01:11:54.918Z,5.40
2017-12-26T01:12:54.929Z,5.30
2017-12-26T01:13:54.953Z,5.60
2017-12-26T01:14:54.966Z,5.10
2017-12-26T01:15:54.988Z,5.60
2017-12-26T01:16:55.002Z,5.50
2017-12-26T01:17:55.024Z,5.00
2017-12-26T01:18:55.043Z,5.60
2017-12-26T01:19:55.060Z,5.90
2017-12-26T01:20:55.071Z,7.40
2017-12-26T01:21:55.094Z,5.30
2017-12-26T01:22:55.114Z,5.90
2017-12-26T01:23:55.126Z,5.70
2017-12-26T01:24:55.143Z,5.70
2017-12-26T01:25:55.167Z,5.40
2017-12-26T01:26:55.192Z,5.60
2017-12-26T01:27:55.198Z,5.90
2017-12-26T01:28:55.213Z,6.40
2017-12-26T01:29:55.238Z,5.40
2017-12-26T01:30:55.256Z,5.00
2017-12-26T01:31:55.268Z,5.00
2017-12-26T01:32:55.284Z,5.30
2017-12-26T01:33:55.309Z,5.30
2017-12-26T01:34:55.327Z,5.80
2017-12-26T01:35:55.339Z,5.60
2017-12-26T01:36:55.360Z,6.00
2017-12-26T01:37:55.373Z,5.80
2017-12-26T01:38:55.396Z,5.90
2017-12-26T01:39:55.410Z,5.50
2017-12-26T01:40:55.432Z,5.80
2017-12-26T01:41:55.443Z,5.30
2017-12-26T01:42:55.467Z,5.00
2017-12-26T01:43:55.479Z,5.20
2017-12-26T01:44:55.510Z,5.60
2017-12-26T01:45:55.515Z,5.90
2017-12-26T01:46:55.541Z,5.60
2017-12-26T01:47:55.551Z,6.50
2017-12-26T01:48:55.573Z,5.20
2017-12-26T01:49:55.586Z,6.00
2017-12-26T01:50:55.602Z,5.50
2017-12-26T01:51:55.627Z,5.40
2017-12-26T01:52:55.638Z,5.20
2017-12-26T01:53:55.664Z,6.00
2017-12-26T01:54:55.674Z,5.40
2017-12-26T01:55:55.697Z,6.70
2017-12-26T01:56:55.710Z,5.60
2017-12-26T01:57:55.731Z,5.40
2017-12-26T01:58:55.744Z,5.40
2017-12-26T01:59:55.768Z,5.50
2017-12-26T02:00:55.779Z,5.70
2017-12-26T02:01:55.804Z,5.20
2017-12-26T02:02:55.815Z,5.90
2017-12-26T02:03:55.838Z,5.60
2017-12-26T02:04:55.854Z,5.50
2017-12-26T02:05:55.873Z,5.80
2017-12-26T02:06:55.891Z,5.00
2017-12-26T02:07:55.902Z,5.40
2017-12-26T02:08:55.919Z,5.60
2017-12-26T02:09:55.940Z,6.70
2017-12-26T02:10:55.961Z,5.60
2017-12-26T02:11:55.978Z,6.30
2017-12-26T02:12:55.989Z,5.30
2017-12-26T02:13:56.013Z,5.80
2017-12-26T02:14:56.026Z,5.90
2017-12-26T02:15:56.049Z,5.70
2017-12-26T02:16:56.065Z,5.40
2017-12-26T02:17:56.076Z,5.50
2017-12-26T02:18:56.096Z,5.50
2017-12-26T02:19:56.118Z,5.40
2017-12-26T02:20:56.136Z,5.40
2017-12-26T02:21:56.148Z,6.40
2017-12-26T02:22:56.166Z,5.70
2017-12-26T02:23:56.190Z,6.60
2017-12-26T02:24:56.212Z,6.10
2017-12-26T02:25:56.225Z,5.70
2017-12-26T02:26:56.237Z,6.10
2017-12-26T02:27:56.254Z,5.40
2017-12-26T02:28:56.277Z,5.90
2017-12-26T02:29:56.288Z,6.10
2017-12-26T02:30:56.312Z,5.70
2017-12-26T02:31:56.324Z,5.90
2017-12-26T02:32:56.346Z,7.30
2017-12-26T02:33:56.359Z,6.00
2017-12-26T02:34:56.383Z,6.40
2017-12-26T02:35:56.394Z,5.90
2017-12-26T02:36:56.417Z,7.10
2017-12-26T02:37:56.429Z,6.50
2017-12-26T02:38:56.454Z,7.00
2017-12-26T02:39:56.471Z,6.50
2017-12-26T02:40:56.487Z,5.60
2017-12-26T02:41:56.504Z,5.80
2017-12-26T02:42:56.516Z,5.90
2017-12-26T02:43:56.539Z,6.20
2017-12-26T02:44:56.557Z,7.00
2017-12-26T02:45:56.571Z,7.60
2017-12-26T02:46:56.587Z,5.60
2017-12-26T02:47:56.610Z,6.40
2017-12-26T02:48:56.623Z,6.10
2017-12-26T02:49:56.648Z,6.50
2017-12-26T02:50:56.655Z,6.40
2017-12-26T02:51:56.679Z,6.30
2017-12-26T02:52:56.692Z,6.50
2017-12-26T02:53:56.715Z,6.80
2017-12-26T02:54:56.727Z,7.10
2017-12-26T02:55:56.750Z,6.00
2017-12-26T02:56:56.761Z,6.50
2017-12-26T02:57:56.778Z,7.70
2017-12-26T02:58:56.798Z,7.40
2017-12-26T02:59:56.814Z,6.90
2017-12-26T03:00:56.831Z,6.40
2017-12-26T03:01:56.853Z,7.10
2017-12-26T03:02:56.866Z,7.00
2017-12-26T03:03:56.895Z,7.90
2017-12-26T03:04:56.907Z,6.90
2017-12-26T03:05:56.920Z,7.90
2017-12-26T03:06:56.935Z,7.80
2017-12-26T03:07:56.959Z,7.40
2017-12-26T03:08:56.977Z,6.80
2017-12-26T03:09:56.989Z,7.00
2017-12-26T03:10:57.012Z,6.90
2017-12-26T03:11:57.024Z,7.60
2017-12-26T03:12:57.041Z,7.10
2017-12-26T03:13:57.058Z,7.60
2017-12-26T03:14:57.081Z,6.90
2017-12-26T03:15:57.101Z,7.80
2017-12-26T03:16:57.111Z,9.10
2017-12-26T03:17:57.134Z,7.70
2017-12-26T03:18:57.151Z,7.90
2017-12-26T03:19:57.165Z,8.50
2017-12-26T03:20:57.182Z,8.00
2017-12-26T03:21:57.203Z,7.70
2017-12-26T03:22:57.222Z,8.20
2017-12-26T03:23:57.233Z,7.90
2017-12-26T03:24:57.249Z,8.10
2017-12-26T03:25:57.274Z,8.30
2017-12-26T03:26:57.286Z,8.80
2017-12-26T03:27:57.309Z,8.50
2017-12-26T03:28:57.326Z,7.70
2017-12-26T03:29:57.344Z,8.20
2017-12-26T03:30:57.357Z,7.90
2017-12-26T03:31:57.374Z,8.20
2017-12-26T03:32:57.396Z,8.90
2017-12-26T03:33:57.409Z,9.20
2017-12-26T03:34:57.427Z,8.50
2017-12-26T03:35:57.448Z,10.90
2017-12-26T03:36:57.467Z,9.30
2017-12-26T03:37:57.479Z,9.20
2017-12-26T03:38:57.495Z,9.20
2017-12-26T03:39:57.520Z,10.20
2017-12-26T03:40:57.536Z,10.00
2017-12-26T03:41:57.548Z,9.00
2017-12-26T03:42:57.572Z,9.20
2017-12-26T03:43:57.590Z,9.40
2017-12-26T03:44:57.606Z,9.00
2017-12-26T03:45:57.624Z,9.10
2017-12-26T03:46:57.635Z,9.60
2017-12-26T03:47:57.659Z,8.80
2017-12-26T03:48:57.677Z,7.60
2017-12-26T03:49:57.690Z,9.00
2017-12-26T03:50:57.713Z,9.60
2017-12-26T03:51:57.725Z,9.70
2017-12-26T03:52:57.748Z,9.50
2017-12-26T03:53:57.759Z,10.10
2017-12-26T03:54:57.783Z,10.20
2017-12-26T03:55:57.796Z,10.40
2017-12-26T03:56:57.819Z,8.90
2017-12-26T03:57:57.832Z,9.50
2017-12-26T03:58:57.848Z,9.40
2017-12-26T03:59:57.867Z,8.50
2017-12-26T04:00:57.882Z,9.50
2017-12-26T04:01:57.903Z,9.90
2017-12-26T04:02:57.929Z,8.90
2017-12-26T04:03:57.937Z,9.00
2017-12-26T04:04:57.955Z,8.40
2017-12-26T04:05:57.978Z,10.20
2017-12-26T04:06:57.992Z,9.00
2017-12-26T04:07:58.015Z,9.00
2017-12-26T04:08:58.028Z,8.60
2017-12-26T04:09:58.056Z,9.70
2017-12-26T04:10:58.063Z,8.30
2017-12-26T04:11:58.087Z,10.90
2017-12-26T04:12:58.098Z,8.90
2017-12-26T04:13:58.122Z,9.70
2017-12-26T04:14:58.140Z,8.60
2017-12-26T04:15:58.153Z,9.60
2017-12-26T04:16:58.175Z,8.80
2017-12-26T04:17:58.188Z,7.80
2017-12-26T04:18:58.213Z,8.80
2017-12-26T04:19:58.224Z,10.30
2017-12-26T04:20:58.249Z,9.50
2017-12-26T04:21:58.261Z,8.60
2017-12-26T04:22:58.285Z,9.30
2017-12-26T04:23:58.297Z,10.20
2017-12-26T04:24:58.321Z,9.70
2017-12-26T04:25:58.336Z,8.40
2017-12-26T04:26:58.359Z,9.50
2017-12-26T04:27:58.370Z,8.70
2017-12-26T04:28:58.394Z,8.80
2017-12-26T04:29:58.408Z,7.30
2017-12-26T04:30:58.424Z,8.00
2017-12-26T04:31:58.449Z,8.70
2017-12-26T04:32:58.461Z,9.00
2017-12-26T04:33:58.485Z,9.10
2017-12-26T04:34:58.501Z,10.50
2017-12-26T04:35:58.521Z,8.10
2017-12-26T04:36:58.534Z,8.70
2017-12-26T04:37:58.564Z,9.40
2017-12-26T04:38:58.571Z,9.50
2017-12-26T04:39:58.603Z,8.30
2017-12-26T04:40:58.607Z,9.70
2017-12-26T04:41:58.630Z,10.50
2017-12-26T04:42:58.643Z,8.00
2017-12-26T04:43:58.668Z,9.20
2017-12-26T04:44:58.681Z,7.90
2017-12-26T04:45:58.703Z,8.60
2017-12-26T04:46:58.717Z,8.50
2017-12-26T04:47:58.741Z,9.00
2017-12-26T04:48:58.759Z,9.30
2017-12-26T04:49:58.772Z,9.00
2017-12-26T04:50:58.790Z,9.50
2017-12-26T04:51:58.814Z,8.40
2017-12-26T04:52:58.833Z,9.70
2017-12-26T04:53:58.845Z,7.80
2017-12-26T04:54:58.863Z,9.00
2017-12-26T04:55:58.888Z,7.70
2017-12-26T04:56:58.907Z,9.30
2017-12-26T04:57:58.920Z,8.20
2017-12-26T04:58:58.939Z,7.10
2017-12-26T04:59:58.963Z,8.40
2017-12-26T05:00:58.983Z,9.90
2017-12-26T05:01:58.995Z,9.00
2017-12-26T05:02:59.018Z,9.20
2017-12-26T05:03:59.031Z,9.50
2017-12-26T05:04:59.049Z,8.30
2017-12-26T05:05:59.074Z,9.00
2017-12-26T05:06:59.093Z,8.10
2017-12-26T05:07:59.109Z,9.80
2017-12-26T05:08:59.124Z,10.20
2017-12-26T05:09:59.147Z,8.40
2017-12-26T05:10:59.168Z,9.80
2017-12-26T05:11:59.181Z,9.00
2017-12-26T05:12:59.197Z,9.20
2017-12-26T05:13:59.222Z,8.70
2017-12-26T05:14:59.242Z,10.20
2017-12-26T05:15:59.254Z,8.30
2017-12-26T05:16:59.273Z,9.70
2017-12-26T05:17:59.297Z,9.00
2017-12-26T05:18:59.317Z,9.10
2017-12-26T05:19:59.329Z,8.50
2017-12-26T05:20:59.352Z,9.60
2017-12-26T05:21:59.366Z,8.20
2017-12-26T05:22:59.391Z,8.40
2017-12-26T05:23:59.404Z,9.00
2017-12-26T05:24:59.427Z,8.70
2017-12-26T05:25:59.441Z,10.00
2017-12-26T05:26:59.460Z,9.70
2017-12-26T05:27:59.485Z,8.10
2017-12-26T05:28:59.503Z,11.00
2017-12-26T05:29:59.522Z,10.10
2017-12-26T05:30:59.535Z,9.50
2017-12-26T05:31:59.560Z,9.00
2017-12-26T05:32:59.575Z,9.10
2017-12-26T05:33:59.600Z,10.20
2017-12-26T05:34:59.610Z,9.60
2017-12-26T05:35:59.636Z,7.80
2017-12-26T05:36:59.648Z,8.20
2017-12-26T05:37:59.670Z,8.50
2017-12-26T05:38:59.687Z,8.90
2017-12-26T05:39:59.711Z,9.20
2017-12-26T05:40:59.722Z,9.60
2017-12-26T05:41:59.749Z,8.60
2017-12-26T05:42:59.767Z,9.10
2017-12-26T05:43:59.779Z,6.90
2017-12-26T05:44:59.797Z,9.50
2017-12-26T05:45:59.822Z,10.70
2017-12-26T05:46:59.841Z,8.20
2017-12-26T05:47:59.855Z,9.00
2017-12-26T05:48:59.874Z,8.30
2017-12-26T05:49:59.898Z,8.30
2017-12-26T05:50:59.910Z,9.70
2017-12-26T05:51:59.936Z,10.00
2017-12-26T05:52:59.957Z,10.20
2017-12-26T05:53:59.967Z,9.00
2017-12-26T05:54:59.988Z,9.90
2017-12-26T05:56:00.017Z,8.90
2017-12-26T05:57:00.031Z,8.70
2017-12-26T05:58:00.044Z,8.20
2017-12-26T05:59:00.070Z,8.20
2017-12-26T06:00:00.094Z,8.90
2017-12-26T06:01:00.101Z,7.60
2017-12-26T06:02:00.125Z,8.20
2017-12-26T06:03:00.144Z,8.80
2017-12-26T06:04:00.159Z,8.10
2017-12-26T06:05:00.176Z,8.20
2017-12-26T06:06:00.201Z,8.40
2017-12-26T06:07:00.222Z,7.30
2017-12-26T06:08:00.235Z,8.50
2017-12-26T06:09:00.254Z,9.80
2017-12-26T06:10:00.276Z,9.20
2017-12-26T06:11:00.297Z,8.20
2017-12-26T06:12:00.310Z,8.50
2017-12-26T06:13:00.330Z,9.30
2017-12-26T06:14:00.354Z,7.50
2017-12-26T06:15:00.373Z,8.00
2017-12-26T06:16:00.386Z,7.70
2017-12-26T06:17:00.412Z,8.50
2017-12-26T06:18:00.424Z,8.70
2017-12-26T06:19:00.450Z,8.50
2017-12-26T06:20:00.464Z,10.30
2017-12-26T06:21:00.488Z,7.80
2017-12-26T06:22:00.500Z,8.50
2017-12-26T06:23:00.526Z,6.90
2017-12-26T06:24:00.540Z,8.70
2017-12-26T06:25:00.566Z,7.00
2017-12-26T06:26:00.584Z,6.90
2017-12-26T06:27:00.602Z,6.40
2017-12-26T06:28:00.623Z,7.40
2017-12-26T06:29:00.642Z,7.40
2017-12-26T06:30:00.654Z,7.70
2017-12-26T06:31:00.680Z,6.20
2017-12-26T06:32:00.743Z,7.10
2017-12-26T06:33:00.725Z,8.00
2017-12-26T06:34:00.733Z,7.50
2017-12-26T06:35:00.758Z,8.20
2017-12-26T06:36:00.771Z,7.50
2017-12-26T06:37:00.799Z,8.00
2017-12-26T06:38:00.810Z,7.40
2017-12-26T06:39:00.832Z,7.50
2017-12-26T06:40:00.855Z,7.10
2017-12-26T06:41:00.870Z,9.30
2017-12-26T06:42:00.886Z,7.30
2017-12-26T06:43:00.906Z,9.10
2017-12-26T06:44:00.925Z,8.40
2017-12-26T06:45:00.944Z,8.70
2017-12-26T06:46:00.972Z,8.00
2017-12-26T06:47:00.983Z,7.50
2017-12-26T06:48:01.009Z,7.60
2017-12-26T06:49:01.023Z,8.80
2017-12-26T06:50:01.046Z,9.10
2017-12-26T06:51:01.062Z,8.90
2017-12-26T06:52:01.088Z,7.90
2017-12-26T06:53:01.098Z,8.20
2017-12-26T06:54:01.126Z,9.30
2017-12-26T06:55:01.144Z,8.70
2017-12-26T06:56:01.164Z,7.50
2017-12-26T06:57:01.177Z,7.60
2017-12-26T06:58:01.197Z,9.00
2017-12-26T06:59:01.217Z,8.90
2017-12-26T07:00:01.243Z,9.10
2017-12-26T07:01:01.254Z,9.20
2017-12-26T07:02:01.279Z,8.70
2017-12-26T07:03:01.299Z,8.90
2017-12-26T07:04:01.313Z,9.50
2017-12-26T07:05:01.332Z,8.20
2017-12-26T07:06:01.358Z,7.70
2017-12-26T07:07:01.376Z,7.40
2017-12-26T07:08:01.392Z,9.00
2017-12-26T07:09:01.410Z,7.10
2017-12-26T07:10:01.434Z,7.50
2017-12-26T07:11:01.449Z,8.70
2017-12-26T07:12:01.467Z,8.70
2017-12-26T07:13:01.491Z,9.20
2017-12-26T07:14:01.511Z,8.20
2017-12-26T07:15:01.531Z,7.70
2017-12-26T07:16:01.544Z,7.90
2017-12-26T07:17:01.569Z,8.30
2017-12-26T07:18:01.583Z,9.10
2017-12-26T07:19:01.610Z,7.50
2017-12-26T07:20:01.627Z,9.20
2017-12-26T07:21:01.645Z,8.40
2017-12-26T07:22:01.660Z,8.20
2017-12-26T07:23:01.679Z,9.70
2017-12-26T07:24:01.704Z,10.00
2017-12-26T07:25:01.721Z,8.10
2017-12-26T07:26:01.735Z,9.90
2017-12-26T07:27:01.765Z,8.60
2017-12-26T07:28:01.775Z,11.00
2017-12-26T07:29:01.800Z,9.40
2017-12-26T07:30:01.820Z,7.60
2017-12-26T07:31:01.842Z,9.60
2017-12-26T07:32:01.857Z,7.50
2017-12-26T07:33:01.875Z,7.10
2017-12-26T07:34:01.890Z,8.80
2017-12-26T07:35:01.911Z,8.90
2017-12-26T07:36:01.934Z,8.20
2017-12-26T07:37:01.947Z,8.00
2017-12-26T07:38:01.971Z,8.70
2017-12-26T07:39:01.985Z,6.50
2017-12-26T07:40:02.011Z,8.10
2017-12-26T07:41:02.023Z,8.80
2017-12-26T07:42:02.048Z,8.40
2017-12-26T07:43:02.061Z,9.10
2017-12-26T07:44:02.086Z,7.70
2017-12-26T07:45:02.099Z,7.10
2017-12-26T07:46:02.119Z,5.90
2017-12-26T07:47:02.137Z,6.80
2017-12-26T07:48:02.158Z,6.30
2017-12-26T07:49:02.174Z,7.50
2017-12-26T07:50:02.201Z,6.90
2017-12-26T07:51:02.214Z,6.10
2017-12-26T07:52:02.239Z,6.10
2017-12-26T07:53:02.256Z,5.10
2017-12-26T07:54:02.271Z,6.30
2017-12-26T07:55:02.291Z,5.30
2017-12-26T07:56:02.314Z,5.70
2017-12-26T07:57:02.333Z,6.90
2017-12-26T07:58:02.346Z,5.50
2017-12-26T07:59:02.371Z,5.10
2017-12-26T08:00:02.385Z,4.80
2017-12-26T08:01:02.403Z,4.50
2017-12-26T08:02:02.423Z,5.60
2017-12-26T08:03:02.447Z,4.50
2017-12-26T08:04:02.467Z,4.80
2017-12-26T08:05:02.480Z,3.90
2017-12-26T08:06:02.504Z,3.00
2017-12-26T08:07:02.519Z,4.20
2017-12-26T08:08:02.542Z,3.90
2017-12-26T08:09:02.560Z,2.90
2017-12-26T08:10:02.575Z,4.10
2017-12-26T08:11:02.592Z,3.40
2017-12-26T08:12:02.618Z,3.20
2017-12-26T08:13:02.636Z,4.00
2017-12-26T08:14:02.648Z,3.90
2017-12-26T08:15:02.668Z,4.20
2017-12-26T08:16:02.693Z,4.40
2017-12-26T08:17:02.711Z,4.30
2017-12-26T08:18:02.734Z,3.50
2017-12-26T08:19:02.743Z,3.70
2017-12-26T08:20:02.763Z,4.10
2017-12-26T08:21:02.785Z,4.90
2017-12-26T08:22:02.800Z,2.80
2017-12-26T08:23:02.824Z,4.30
2017-12-26T08:24:02.837Z,4.60
2017-12-26T08:25:02.864Z,3.90
2017-12-26T08:26:02.876Z,4.00
2017-12-26T08:27:02.899Z,3.90
2017-12-26T08:28:02.915Z,4.10
2017-12-26T08:29:02.937Z,4.70
2017-12-26T08:30:02.952Z,4.80
2017-12-26T08:31:02.971Z,3.90
2017-12-26T08:32:02.994Z,3.90
2017-12-26T08:33:03.013Z,6.30
2017-12-26T08:34:03.025Z,3.90
2017-12-26T08:35:03.050Z,4.00
2017-12-26T08:36:03.065Z,4.10
2017-12-26T08:37:03.087Z,3.70
2017-12-26T08:38:03.099Z,4.80
2017-12-26T08:39:03.128Z,4.30
2017-12-26T08:40:03.138Z,5.20
2017-12-26T08:41:03.156Z,3.60
2017-12-26T08:42:03.185Z,3.60
2017-12-26T08:43:03.200Z,4.00
2017-12-26T08:44:03.214Z,5.60
2017-12-26T08:45:03.238Z,4.00
2017-12-26T08:46:03.256Z,4.40
2017-12-26T08:47:03.268Z,3.90
2017-12-26T08:48:03.293Z,4.60
2017-12-26T08:49:03.307Z,4.00
2017-12-26T08:50:03.331Z,3.90
2017-12-26T08:51:03.351Z,2.70
2017-12-26T08:52:03.367Z,3.30
2017-12-26T08:53:03.380Z,3.50
2017-12-26T08:54:03.405Z,4.00
2017-12-26T08:55:03.420Z,3.90
2017-12-26T08:56:03.444Z,3.70
2017-12-26T08:57:03.462Z,3.90
2017-12-26T08:58:03.475Z,3.60
2017-12-26T08:59:03.493Z,3.90
2017-12-26T09:00:03.519Z,3.90
2017-12-26T09:01:03.536Z,4.40
2017-12-26T09:02:03.550Z,4.10
2017-12-26T09:03:03.568Z,4.00
2017-12-26T09:04:03.594Z,4.20
2017-12-26T09:05:03.606Z,4.20
2017-12-26T09:06:03.630Z,4.80
2017-12-26T09:07:03.649Z,3.20
2017-12-26T09:08:03.666Z,3.60
2017-12-26T09:09:03.680Z,3.20
2017-12-26T09:10:03.705Z,3.90
2017-12-26T09:11:03.719Z,3.20
2017-12-26T09:12:03.742Z,3.60
2017-12-26T09:13:03.755Z,3.50
2017-12-26T09:14:03.779Z,2.90
2017-12-26T09:15:03.794Z,2.50
2017-12-26T09:16:03.822Z,3.80
2017-12-26T09:17:03.830Z,3.30
2017-12-26T09:18:03.854Z,3.60
2017-12-26T09:19:03.875Z,2.80
2017-12-26T09:20:03.887Z,4.00
2017-12-26T09:21:03.904Z,4.00
2017-12-26T09:22:03.929Z,3.20
2017-12-26T09:23:03.942Z,3.30
2017-12-26T09:24:03.969Z,2.70
2017-12-26T09:25:03.979Z,2.90
2017-12-26T09:26:04.003Z,3.90
2017-12-26T09:27:04.024Z,3.00
2017-12-26T09:28:04.035Z,2.70
2017-12-26T09:29:04.061Z,2.60
2017-12-26T09:30:04.072Z,3.70
2017-12-26T09:31:04.097Z,3.70
2017-12-26T09:32:04.119Z,3.10
2017-12-26T09:33:04.134Z,3.30
2017-12-26T09:34:04.148Z,3.70
2017-12-26T09:35:04.171Z,3.10
2017-12-26T09:36:04.185Z,2.80
2017-12-26T09:37:04.204Z,3.50
2017-12-26T09:38:04.229Z,2.80
2017-12-26T09:39:04.247Z,3.00
2017-12-26T09:40:04.264Z,3.10
2017-12-26T09:41:04.284Z,2.60
2017-12-26T09:42:04.303Z,2.40
2017-12-26T09:43:04.322Z,4.10
2017-12-26T09:44:04.335Z,3.20
2017-12-26T09:45:04.353Z,3.60
2017-12-26T09:46:04.377Z,3.60
2017-12-26T09:47:04.396Z,4.00
2017-12-26T09:48:04.409Z,2.10
2017-12-26T09:49:04.428Z,2.80
2017-12-26T09:50:04.453Z,3.40
2017-12-26T09:51:04.469Z,4.30
2017-12-26T09:52:04.490Z,2.50
2017-12-26T09:53:04.508Z,2.90
2017-12-26T09:54:04.523Z,4.80
2017-12-26T09:55:04.541Z,3.90
2017-12-26T09:56:04.565Z,3.50
2017-12-26T09:57:04.584Z,3.40
2017-12-26T09:58:04.597Z,3.90
2017-12-26T09:59:04.616Z,3.20
2017-12-26T10:00:04.641Z,4.00
2017-12-26T10:01:04.659Z,3.70
2017-12-26T10:02:04.673Z,4.40
2017-12-26T10:03:04.693Z,3.50
2017-12-26T10:04:04.717Z,3.10
2017-12-26T10:05:04.736Z,4.10
2017-12-26T10:06:04.749Z,3.00
2017-12-26T10:07:04.770Z,3.00
2017-12-26T10:08:04.792Z,4.00
2017-12-26T10:09:04.807Z,3.80
2017-12-26T10:10:04.831Z,3.60
2017-12-26T10:11:04.844Z,3.60
2017-12-26T10:12:04.885Z,3.70
2017-12-26T10:13:04.882Z,2.90
2017-12-26T10:14:04.906Z,4.70
2017-12-26T10:15:04.920Z,3.20
2017-12-26T10:16:04.944Z,3.70
2017-12-26T10:17:04.957Z,3.20
2017-12-26T10:18:04.981Z,3.40
2017-12-26T10:19:04.996Z,3.20
2017-12-26T10:20:05.020Z,3.70
2017-12-26T10:21:05.033Z,2.60
2017-12-26T10:22:05.058Z,2.80
2017-12-26T10:23:05.076Z,2.50
2017-12-26T10:24:05.090Z,3.20
2017-12-26T10:25:05.114Z,2.90
2017-12-26T10:26:05.127Z,3.00
2017-12-26T10:27:05.153Z,3.30
2017-12-26T10:28:05.166Z,5.00
2017-12-26T10:29:05.189Z,3.50
2017-12-26T10:30:05.205Z,2.80
2017-12-26T10:31:05.228Z,3.70
2017-12-26T10:32:05.243Z,2.60
2017-12-26T10:33:05.265Z,3.20
2017-12-26T10:34:05.280Z,3.00
2017-12-26T10:35:05.305Z,3.30
2017-12-26T10:36:05.318Z,4.80
2017-12-26T10:37:05.342Z,2.80
2017-12-26T10:38:05.357Z,2.70
2017-12-26T10:39:05.374Z,2.30
2017-12-26T10:40:05.399Z,3.60
2017-12-26T10:41:05.419Z,2.90
2017-12-26T10:42:05.437Z,2.60
2017-12-26T10:43:05.460Z,2.80
2017-12-26T10:44:05.476Z,2.80
2017-12-26T10:45:05.489Z,2.80
2017-12-26T10:46:05.515Z,3.50
2017-12-26T10:47:05.541Z,3.60
2017-12-26T10:48:05.548Z,3.10
2017-12-26T10:49:05.567Z,2.40
2017-12-26T10:50:05.593Z,3.40
2017-12-26T10:51:05.612Z,2.50
2017-12-26T10:52:05.626Z,2.90
2017-12-26T10:53:05.647Z,3.60
2017-12-26T10:54:05.672Z,2.60
2017-12-26T10:55:05.690Z,3.00
2017-12-26T10:56:05.704Z,3.40
2017-12-26T10:57:05.726Z,4.00
2017-12-26T10:58:05.746Z,3.20
2017-12-26T10:59:05.814Z,3.00
2017-12-26T11:00:05.780Z,2.60
2017-12-26T11:01:05.800Z,2.90
2017-12-26T11:02:05.825Z,2.90
2017-12-26T11:03:05.840Z,3.10
2017-12-26T11:04:05.864Z,3.60
2017-12-26T11:05:05.885Z,4.20
2017-12-26T11:06:05.898Z,3.30
2017-12-26T11:07:05.918Z,3.10
2017-12-26T11:08:05.946Z,3.60
2017-12-26T11:09:05.968Z,3.90
2017-12-26T11:10:05.975Z,4.10
2017-12-26T11:11:06.002Z,4.10
2017-12-26T11:12:06.014Z,5.20
2017-12-26T11:13:06.040Z,3.20
2017-12-26T11:14:06.060Z,3.00
2017-12-26T11:15:06.075Z,3.90
2017-12-26T11:16:06.094Z,3.40
2017-12-26T11:17:06.117Z,4.80
2017-12-26T11:18:06.132Z,3.40
2017-12-26T11:19:06.158Z,4.00
2017-12-26T11:20:06.171Z,3.60
2017-12-26T11:21:06.193Z,4.10
2017-12-26T11:22:06.212Z,3.40
2017-12-26T11:23:06.235Z,3.60
2017-12-26T11:24:06.248Z,4.00
2017-12-26T11:25:06.273Z,3.40
2017-12-26T11:26:06.288Z,3.30
2017-12-26T11:27:06.311Z,3.60
2017-12-26T11:28:06.328Z,4.40
2017-12-26T11:29:06.346Z,2.80
2017-12-26T11:30:06.366Z,4.70
2017-12-26T11:31:06.384Z,3.20
2017-12-26T11:32:06.405Z,2.60
2017-12-26T11:33:06.423Z,3.90
2017-12-26T11:34:06.447Z,2.90
2017-12-26T11:35:06.462Z,2.80
2017-12-26T11:36:06.487Z,4.20
2017-12-26T11:37:06.499Z,3.60
2017-12-26T11:38:06.526Z,3.30
2017-12-26T11:39:06.539Z,3.10
2017-12-26T11:40:06.564Z,2.60
2017-12-26T11:41:06.578Z,2.20
2017-12-26T11:42:06.602Z,2.70
2017-12-26T11:43:06.617Z,3.20
2017-12-26T11:44:06.641Z,4.10
2017-12-26T11:45:06.666Z,3.00
2017-12-26T11:46:06.680Z,2.70
2017-12-26T11:47:06.695Z,1.80
2017-12-26T11:48:06.715Z,1.80
2017-12-26T11:49:06.740Z,5.50
2017-12-26T11:50:06.755Z,3.00
2017-12-26T11:51:06.778Z,3.70
2017-12-26T11:52:06.792Z,5.10
2017-12-26T11:53:06.811Z,5.20
2017-12-26T11:54:06.836Z,2.00
2017-12-26T11:55:06.856Z,2.50
2017-12-26T11:56:06.870Z,2.70
2017-12-26T11:57:06.888Z,3.10
2017-12-26T11:58:06.914Z,3.50
2017-12-26T11:59:06.933Z,3.90
2017-12-26T12:00:06.949Z,2.00
2017-12-26T12:01:06.967Z,3.80
2017-12-26T12:02:06.988Z,4.50
2017-12-26T12:03:07.012Z,2.70
2017-12-26T12:04:07.032Z,3.00
2017-12-26T12:05:07.045Z,4.60
2017-12-26T12:06:07.070Z,3.10
2017-12-26T12:07:07.086Z,2.80
2017-12-26T12:08:07.110Z,4.40
2017-12-26T12:09:07.129Z,3.70
2017-12-26T12:10:07.145Z,3.90
2017-12-26T12:11:07.163Z,3.60
2017-12-26T12:12:07.190Z,5.60
2017-12-26T12:13:07.208Z,3.70
2017-12-26T12:14:07.224Z,5.00
2017-12-26T12:15:07.243Z,2.50
2017-12-26T12:16:07.262Z,2.60
2017-12-26T12:17:07.286Z,2.50
2017-12-26T12:18:07.301Z,3.90
2017-12-26T12:19:07.326Z,3.30
2017-12-26T12:20:07.340Z,4.40
2017-12-26T12:21:07.360Z,2.50
2017-12-26T12:22:07.380Z,3.60
2017-12-26T12:23:07.404Z,4.90
2017-12-26T12:24:07.420Z,4.00
2017-12-26T12:25:07.445Z,3.10
2017-12-26T12:26:07.459Z,3.50
2017-12-26T12:27:07.484Z,4.90
2017-12-26T12:28:07.497Z,2.80
2017-12-26T12:29:07.522Z,3.30
2017-12-26T12:30:07.537Z,3.00
2017-12-26T12:31:07.563Z,2.80
2017-12-26T12:32:07.586Z,3.10
2017-12-26T12:33:07.602Z,3.00
2017-12-26T12:34:07.621Z,3.10
2017-12-26T12:35:07.637Z,3.50
2017-12-26T12:36:07.662Z,2.80
2017-12-26T12:37:07.681Z,5.00
2017-12-26T12:38:07.697Z,3.30
2017-12-26T12:39:07.717Z,2.90
2017-12-26T12:40:07.741Z,2.80
2017-12-26T12:41:07.756Z,3.00
2017-12-26T12:42:07.781Z,4.50
2017-12-26T12:43:07.795Z,2.10
2017-12-26T12:44:07.822Z,2.40
2017-12-26T12:45:07.836Z,4.20
2017-12-26T12:46:07.861Z,4.20
2017-12-26T12:47:07.878Z,3.20
2017-12-26T12:48:07.901Z,3.10
2017-12-26T12:49:07.915Z,2.90
2017-12-26T12:50:07.948Z,2.50
2017-12-26T12:51:07.955Z,3.10
2017-12-26T12:52:07.980Z,2.90
2017-12-26T12:53:07.994Z,3.10
2017-12-26T12:54:08.019Z,3.10
2017-12-26T12:55:08.035Z,4.00
2017-12-26T12:56:08.060Z,4.00
2017-12-26T12:57:08.073Z,3.00
2017-12-26T12:58:08.097Z,3.50
2017-12-26T12:59:08.111Z,2.90
2017-12-26T13:00:08.138Z,3.10
2017-12-26T13:01:08.150Z,2.00
2017-12-26T13:02:08.176Z,2.00
2017-12-26T13:03:08.197Z,2.10
2017-12-26T13:04:08.211Z,2.80
2017-12-26T13:05:08.235Z,4.50
2017-12-26T13:06:08.248Z,4.20
2017-12-26T13:07:08.275Z,5.10
2017-12-26T13:08:08.289Z,2.70
2017-12-26T13:09:08.313Z,3.30
2017-12-26T13:10:08.328Z,2.70
2017-12-26T13:11:08.354Z,2.80
2017-12-26T13:12:08.367Z,1.50
2017-12-26T13:13:08.390Z,4.10
2017-12-26T13:14:08.405Z,3.50
2017-12-26T13:15:08.433Z,3.40
2017-12-26T13:16:08.445Z,3.60
2017-12-26T13:17:08.470Z,4.00
2017-12-26T13:18:08.482Z,3.10